sensor_id;sensor_type;location;lat;lon;timestamp;P1;durP1;ratioP1;P2;durP2;ratioP2
40635;SDS011;26642;55.766;37.828;2022-08-21T00:02:01;35.85;;;25.98;;
40635;SDS011;26642;55.766;37.828;2022-08-21T00:04:29;37.85;;;25.35;;
40635;SDS011;26642;55.766;37.828;2022-08-21T00:06:55;35.92;;;25.38;;
40635;SDS011;26642;55.766;37.828;2022-08-21T00:09:22;37.75;;;24.30;;
40635;SDS011;26642;55.766;37.828;2022-08-21T00:11:48;34.63;;;24.65;;
40635;SDS011;26642;55.766;37.828;2022-08-21T00:14:14;36.92;;;24.45;;
40635;SDS011;26642;55.766;37.828;2022-08-21T00:16:40;35.30;;;24.45;;
40635;SDS011;26642;55.766;37.828;2022-08-21T00:19:06;36.28;;;26.48;;
40635;SDS011;26642;55.766;37.828;2022-08-21T00:21:34;39.10;;;26.67;;
40635;SDS011;26642;55.766;37.828;2022-08-21T00:24:01;38.88;;;26.67;;
40635;SDS011;26642;55.766;37.828;2022-08-21T00:26:27;36.42;;;26.17;;
40635;SDS011;26642;55.766;37.828;2022-08-21T00:28:53;40.22;;;26.55;;
40635;SDS011;26642;55.766;37.828;2022-08-21T00:31:19;41.13;;;27.08;;
40635;SDS011;26642;55.766;37.828;2022-08-21T00:33:45;36.60;;;26.10;;
40635;SDS011;26642;55.766;37.828;2022-08-21T00:36:11;38.15;;;25.58;;
40635;SDS011;26642;55.766;37.828;2022-08-21T00:38:38;39.50;;;27.05;;
40635;SDS011;26642;55.766;37.828;2022-08-21T00:41:05;34.83;;;26.27;;
40635;SDS011;26642;55.766;37.828;2022-08-21T00:43:34;42.03;;;26.48;;
40635;SDS011;26642;55.766;37.828;2022-08-21T00:46:03;37.80;;;24.02;;
40635;SDS011;26642;55.766;37.828;2022-08-21T00:48:30;39.03;;;24.80;;
40635;SDS011;26642;55.766;37.828;2022-08-21T00:51:08;35.90;;;25.45;;
40635;SDS011;26642;55.766;37.828;2022-08-21T00:53:39;39.25;;;25.17;;
40635;SDS011;26642;55.766;37.828;2022-08-21T00:56:07;34.95;;;23.98;;
40635;SDS011;26642;55.766;37.828;2022-08-21T00:58:35;36.15;;;25.02;;
40635;SDS011;26642;55.766;37.828;2022-08-21T01:01:04;34.33;;;24.17;;
40635;SDS011;26642;55.766;37.828;2022-08-21T01:03:31;37.60;;;25.08;;
40635;SDS011;26642;55.766;37.828;2022-08-21T01:05:57;32.53;;;23.90;;
40635;SDS011;26642;55.766;37.828;2022-08-21T01:08:23;36.38;;;24.38;;
40635;SDS011;26642;55.766;37.828;2022-08-21T01:10:50;37.80;;;25.35;;
40635;SDS011;26642;55.766;37.828;2022-08-21T01:13:24;38.10;;;24.75;;
40635;SDS011;26642;55.766;37.828;2022-08-21T01:15:51;36.53;;;24.92;;
40635;SDS011;26642;55.766;37.828;2022-08-21T01:18:20;35.38;;;25.92;;
40635;SDS011;26642;55.766;37.828;2022-08-21T01:21:03;40.42;;;25.63;;
40635;SDS011;26642;55.766;37.828;2022-08-21T01:23:33;33.15;;;24.92;;
40635;SDS011;26642;55.766;37.828;2022-08-21T01:26:01;35.53;;;26.33;;
40635;SDS011;26642;55.766;37.828;2022-08-21T01:28:28;36.47;;;25.70;;
40635;SDS011;26642;55.766;37.828;2022-08-21T01:30:58;36.97;;;26.15;;
40635;SDS011;26642;55.766;37.828;2022-08-21T01:33:26;41.67;;;26.52;;
40635;SDS011;26642;55.766;37.828;2022-08-21T01:35:52;36.47;;;26.88;;
40635;SDS011;26642;55.766;37.828;2022-08-21T01:38:18;43.45;;;28.58;;
40635;SDS011;26642;55.766;37.828;2022-08-21T01:40:44;37.55;;;27.88;;
40635;SDS011;26642;55.766;37.828;2022-08-21T01:43:10;42.15;;;27.52;;
40635;SDS011;26642;55.766;37.828;2022-08-21T01:45:36;42.42;;;28.48;;
40635;SDS011;26642;55.766;37.828;2022-08-21T01:48:02;46.95;;;29.40;;
40635;SDS011;26642;55.766;37.828;2022-08-21T01:50:29;44.55;;;28.13;;
40635;SDS011;26642;55.766;37.828;2022-08-21T01:52:55;37.08;;;27.35;;
40635;SDS011;26642;55.766;37.828;2022-08-21T01:55:21;41.38;;;27.27;;
40635;SDS011;26642;55.766;37.828;2022-08-21T01:57:47;38.75;;;28.55;;
40635;SDS011;26642;55.766;37.828;2022-08-21T02:00:15;43.22;;;27.60;;
40635;SDS011;26642;55.766;37.828;2022-08-21T02:02:43;46.00;;;29.50;;
40635;SDS011;26642;55.766;37.828;2022-08-21T02:05:10;40.33;;;28.65;;
40635;SDS011;26642;55.766;37.828;2022-08-21T02:07:37;40.25;;;29.10;;
40635;SDS011;26642;55.766;37.828;2022-08-21T02:10:06;44.22;;;29.95;;
40635;SDS011;26642;55.766;37.828;2022-08-21T02:12:34;41.20;;;30.25;;
40635;SDS011;26642;55.766;37.828;2022-08-21T02:15:00;45.75;;;32.50;;
40635;SDS011;26642;55.766;37.828;2022-08-21T02:17:36;48.75;;;33.63;;
40635;SDS011;26642;55.766;37.828;2022-08-21T02:20:11;50.25;;;33.67;;
40635;SDS011;26642;55.766;37.828;2022-08-21T02:22:46;50.08;;;35.55;;
40635;SDS011;26642;55.766;37.828;2022-08-21T02:25:12;55.70;;;36.58;;
40635;SDS011;26642;55.766;37.828;2022-08-21T02:27:40;52.78;;;35.95;;
40635;SDS011;26642;55.766;37.828;2022-08-21T02:30:07;57.70;;;36.22;;
40635;SDS011;26642;55.766;37.828;2022-08-21T02:32:35;51.45;;;36.63;;
40635;SDS011;26642;55.766;37.828;2022-08-21T02:35:01;48.05;;;37.60;;
40635;SDS011;26642;55.766;37.828;2022-08-21T02:37:28;59.92;;;39.75;;
40635;SDS011;26642;55.766;37.828;2022-08-21T02:39:54;57.75;;;38.17;;
40635;SDS011;26642;55.766;37.828;2022-08-21T02:42:20;56.78;;;38.45;;
40635;SDS011;26642;55.766;37.828;2022-08-21T02:44:46;56.88;;;39.63;;
40635;SDS011;26642;55.766;37.828;2022-08-21T02:47:13;62.17;;;40.72;;
40635;SDS011;26642;55.766;37.828;2022-08-21T02:49:39;54.40;;;40.88;;
40635;SDS011;26642;55.766;37.828;2022-08-21T02:52:05;61.30;;;42.38;;
40635;SDS011;26642;55.766;37.828;2022-08-21T02:54:31;56.85;;;40.95;;
40635;SDS011;26642;55.766;37.828;2022-08-21T02:56:58;58.13;;;41.90;;
40635;SDS011;26642;55.766;37.828;2022-08-21T02:59:24;62.35;;;43.47;;
40635;SDS011;26642;55.766;37.828;2022-08-21T03:01:50;59.00;;;43.08;;
40635;SDS011;26642;55.766;37.828;2022-08-21T03:04:16;61.20;;;43.47;;
40635;SDS011;26642;55.766;37.828;2022-08-21T03:06:41;65.07;;;44.33;;
40635;SDS011;26642;55.766;37.828;2022-08-21T03:09:08;62.88;;;45.25;;
40635;SDS011;26642;55.766;37.828;2022-08-21T03:11:34;62.28;;;45.42;;
40635;SDS011;26642;55.766;37.828;2022-08-21T03:14:00;65.63;;;45.55;;
40635;SDS011;26642;55.766;37.828;2022-08-21T03:16:26;61.22;;;45.78;;
40635;SDS011;26642;55.766;37.828;2022-08-21T03:18:52;66.53;;;45.95;;
40635;SDS011;26642;55.766;37.828;2022-08-21T03:21:18;70.85;;;48.85;;
40635;SDS011;26642;55.766;37.828;2022-08-21T03:23:44;67.40;;;46.95;;
40635;SDS011;26642;55.766;37.828;2022-08-21T03:26:10;67.82;;;47.95;;
40635;SDS011;26642;55.766;37.828;2022-08-21T03:28:36;76.78;;;50.20;;
40635;SDS011;26642;55.766;37.828;2022-08-21T03:31:02;67.93;;;48.63;;
40635;SDS011;26642;55.766;37.828;2022-08-21T03:33:29;68.88;;;50.70;;
40635;SDS011;26642;55.766;37.828;2022-08-21T03:36:00;67.57;;;49.03;;
40635;SDS011;26642;55.766;37.828;2022-08-21T03:38:30;70.90;;;49.70;;
40635;SDS011;26642;55.766;37.828;2022-08-21T03:40:58;72.20;;;51.53;;
40635;SDS011;26642;55.766;37.828;2022-08-21T03:43:25;74.68;;;51.67;;
40635;SDS011;26642;55.766;37.828;2022-08-21T03:45:52;75.40;;;51.40;;
40635;SDS011;26642;55.766;37.828;2022-08-21T03:48:18;81.65;;;53.67;;
40635;SDS011;26642;55.766;37.828;2022-08-21T03:50:44;77.68;;;50.17;;
40635;SDS011;26642;55.766;37.828;2022-08-21T03:53:13;71.15;;;51.25;;
40635;SDS011;26642;55.766;37.828;2022-08-21T03:55:39;72.50;;;51.53;;
40635;SDS011;26642;55.766;37.828;2022-08-21T03:58:06;70.47;;;51.67;;
40635;SDS011;26642;55.766;37.828;2022-08-21T04:00:32;73.22;;;51.92;;
40635;SDS011;26642;55.766;37.828;2022-08-21T04:02:59;70.85;;;50.42;;
40635;SDS011;26642;55.766;37.828;2022-08-21T04:05:25;74.80;;;52.90;;
40635;SDS011;26642;55.766;37.828;2022-08-21T04:07:58;73.95;;;51.63;;
40635;SDS011;26642;55.766;37.828;2022-08-21T04:10:27;75.18;;;52.42;;
40635;SDS011;26642;55.766;37.828;2022-08-21T04:12:55;75.65;;;51.40;;
40635;SDS011;26642;55.766;37.828;2022-08-21T04:15:22;74.57;;;51.58;;
40635;SDS011;26642;55.766;37.828;2022-08-21T04:17:49;78.28;;;50.55;;
40635;SDS011;26642;55.766;37.828;2022-08-21T04:20:16;74.82;;;53.38;;
40635;SDS011;26642;55.766;37.828;2022-08-21T04:22:43;73.68;;;52.85;;
40635;SDS011;26642;55.766;37.828;2022-08-21T04:25:10;70.47;;;51.45;;
40635;SDS011;26642;55.766;37.828;2022-08-21T04:27:37;73.50;;;53.25;;
40635;SDS011;26642;55.766;37.828;2022-08-21T04:30:05;66.57;;;49.92;;
40635;SDS011;26642;55.766;37.828;2022-08-21T04:32:32;71.90;;;51.78;;
40635;SDS011;26642;55.766;37.828;2022-08-21T04:35:05;73.85;;;53.13;;
40635;SDS011;26642;55.766;37.828;2022-08-21T04:37:34;68.70;;;50.55;;
40635;SDS011;26642;55.766;37.828;2022-08-21T04:40:00;73.55;;;52.63;;
40635;SDS011;26642;55.766;37.828;2022-08-21T04:42:27;71.03;;;52.85;;
40635;SDS011;26642;55.766;37.828;2022-08-21T04:44:54;73.07;;;51.97;;
40635;SDS011;26642;55.766;37.828;2022-08-21T04:47:21;71.57;;;51.97;;
40635;SDS011;26642;55.766;37.828;2022-08-21T04:49:48;68.55;;;51.00;;
40635;SDS011;26642;55.766;37.828;2022-08-21T04:52:17;70.15;;;51.55;;
40635;SDS011;26642;55.766;37.828;2022-08-21T04:54:46;72.35;;;50.30;;
40635;SDS011;26642;55.766;37.828;2022-08-21T04:57:13;74.97;;;51.08;;
40635;SDS011;26642;55.766;37.828;2022-08-21T04:59:43;73.72;;;50.53;;
40635;SDS011;26642;55.766;37.828;2022-08-21T05:02:12;63.58;;;47.88;;
40635;SDS011;26642;55.766;37.828;2022-08-21T05:04:42;66.70;;;50.25;;
40635;SDS011;26642;55.766;37.828;2022-08-21T05:07:18;66.13;;;49.08;;
40635;SDS011;26642;55.766;37.828;2022-08-21T05:09:47;67.47;;;48.33;;
40635;SDS011;26642;55.766;37.828;2022-08-21T05:12:13;69.07;;;49.05;;
40635;SDS011;26642;55.766;37.828;2022-08-21T05:14:40;70.63;;;47.45;;
40635;SDS011;26642;55.766;37.828;2022-08-21T05:17:07;64.97;;;46.60;;
40635;SDS011;26642;55.766;37.828;2022-08-21T05:19:34;62.80;;;46.22;;
40635;SDS011;26642;55.766;37.828;2022-08-21T05:22:00;69.43;;;46.67;;
40635;SDS011;26642;55.766;37.828;2022-08-21T05:24:26;70.60;;;48.90;;
40635;SDS011;26642;55.766;37.828;2022-08-21T05:26:53;63.30;;;45.28;;
40635;SDS011;26642;55.766;37.828;2022-08-21T05:29:19;61.47;;;47.25;;
40635;SDS011;26642;55.766;37.828;2022-08-21T05:31:46;63.40;;;45.42;;
40635;SDS011;26642;55.766;37.828;2022-08-21T05:34:13;62.25;;;45.53;;
40635;SDS011;26642;55.766;37.828;2022-08-21T05:36:43;59.35;;;43.40;;
40635;SDS011;26642;55.766;37.828;2022-08-21T05:39:09;61.35;;;44.92;;
40635;SDS011;26642;55.766;37.828;2022-08-21T05:41:35;61.80;;;44.20;;
40635;SDS011;26642;55.766;37.828;2022-08-21T05:44:01;58.03;;;42.78;;
40635;SDS011;26642;55.766;37.828;2022-08-21T05:46:27;59.75;;;43.22;;
40635;SDS011;26642;55.766;37.828;2022-08-21T05:48:53;61.05;;;43.78;;
40635;SDS011;26642;55.766;37.828;2022-08-21T05:51:19;58.28;;;42.03;;
40635;SDS011;26642;55.766;37.828;2022-08-21T05:53:45;60.90;;;42.55;;
40635;SDS011;26642;55.766;37.828;2022-08-21T05:56:11;57.38;;;41.38;;
40635;SDS011;26642;55.766;37.828;2022-08-21T05:58:38;53.72;;;41.45;;
40635;SDS011;26642;55.766;37.828;2022-08-21T06:01:04;57.60;;;42.50;;
40635;SDS011;26642;55.766;37.828;2022-08-21T06:03:35;54.90;;;39.50;;
40635;SDS011;26642;55.766;37.828;2022-08-21T06:06:04;56.70;;;40.72;;
40635;SDS011;26642;55.766;37.828;2022-08-21T06:08:30;54.75;;;39.95;;
40635;SDS011;26642;55.766;37.828;2022-08-21T06:10:58;54.05;;;40.10;;
40635;SDS011;26642;55.766;37.828;2022-08-21T06:13:26;50.67;;;38.70;;
40635;SDS011;26642;55.766;37.828;2022-08-21T06:16:08;52.45;;;39.95;;
40635;SDS011;26642;55.766;37.828;2022-08-21T06:18:36;51.25;;;37.65;;
40635;SDS011;26642;55.766;37.828;2022-08-21T06:21:04;54.60;;;37.67;;
40635;SDS011;26642;55.766;37.828;2022-08-21T06:23:31;49.85;;;38.13;;
40635;SDS011;26642;55.766;37.828;2022-08-21T06:25:57;47.83;;;37.20;;
40635;SDS011;26642;55.766;37.828;2022-08-21T06:28:23;56.13;;;38.63;;
40635;SDS011;26642;55.766;37.828;2022-08-21T06:30:49;46.97;;;36.47;;
40635;SDS011;26642;55.766;37.828;2022-08-21T06:33:15;47.20;;;36.42;;
40635;SDS011;26642;55.766;37.828;2022-08-21T06:35:41;55.38;;;37.03;;
40635;SDS011;26642;55.766;37.828;2022-08-21T06:38:07;52.72;;;35.03;;
40635;SDS011;26642;55.766;37.828;2022-08-21T06:40:33;43.00;;;35.33;;
40635;SDS011;26642;55.766;37.828;2022-08-21T06:43:11;48.33;;;37.33;;
40635;SDS011;26642;55.766;37.828;2022-08-21T06:45:39;47.90;;;35.08;;
40635;SDS011;26642;55.766;37.828;2022-08-21T06:48:05;47.83;;;36.25;;
40635;SDS011;26642;55.766;37.828;2022-08-21T06:50:32;49.15;;;35.60;;
40635;SDS011;26642;55.766;37.828;2022-08-21T06:53:00;46.55;;;35.38;;
40635;SDS011;26642;55.766;37.828;2022-08-21T06:55:33;47.03;;;36.30;;
40635;SDS011;26642;55.766;37.828;2022-08-21T06:58:00;48.15;;;34.65;;
40635;SDS011;26642;55.766;37.828;2022-08-21T07:00:26;51.40;;;36.75;;
40635;SDS011;26642;55.766;37.828;2022-08-21T07:02:52;49.97;;;36.50;;
40635;SDS011;26642;55.766;37.828;2022-08-21T07:05:18;48.67;;;34.08;;
40635;SDS011;26642;55.766;37.828;2022-08-21T07:07:44;47.90;;;32.85;;
40635;SDS011;26642;55.766;37.828;2022-08-21T07:10:11;47.03;;;34.08;;
40635;SDS011;26642;55.766;37.828;2022-08-21T07:12:37;42.20;;;33.28;;
40635;SDS011;26642;55.766;37.828;2022-08-21T07:15:03;46.45;;;33.60;;
40635;SDS011;26642;55.766;37.828;2022-08-21T07:17:30;45.67;;;32.80;;
40635;SDS011;26642;55.766;37.828;2022-08-21T07:19:56;45.42;;;32.67;;
40635;SDS011;26642;55.766;37.828;2022-08-21T07:22:23;45.08;;;32.00;;
40635;SDS011;26642;55.766;37.828;2022-08-21T07:24:49;39.22;;;31.15;;
40635;SDS011;26642;55.766;37.828;2022-08-21T07:27:15;42.25;;;32.45;;
40635;SDS011;26642;55.766;37.828;2022-08-21T07:29:41;41.47;;;31.23;;
40635;SDS011;26642;55.766;37.828;2022-08-21T07:32:07;47.10;;;33.22;;
40635;SDS011;26642;55.766;37.828;2022-08-21T07:34:33;42.92;;;33.45;;
40635;SDS011;26642;55.766;37.828;2022-08-21T07:36:59;43.90;;;32.30;;
40635;SDS011;26642;55.766;37.828;2022-08-21T07:39:25;42.08;;;32.70;;
40635;SDS011;26642;55.766;37.828;2022-08-21T07:41:50;42.10;;;32.50;;
40635;SDS011;26642;55.766;37.828;2022-08-21T07:44:16;40.53;;;31.17;;
40635;SDS011;26642;55.766;37.828;2022-08-21T07:46:42;44.63;;;32.08;;
40635;SDS011;26642;55.766;37.828;2022-08-21T07:49:08;41.05;;;30.77;;
40635;SDS011;26642;55.766;37.828;2022-08-21T07:51:34;42.80;;;31.67;;
40635;SDS011;26642;55.766;37.828;2022-08-21T07:54:00;36.90;;;30.48;;
40635;SDS011;26642;55.766;37.828;2022-08-21T07:56:27;41.38;;;31.00;;
40635;SDS011;26642;55.766;37.828;2022-08-21T07:58:55;41.60;;;31.00;;
40635;SDS011;26642;55.766;37.828;2022-08-21T08:01:22;39.00;;;29.10;;
40635;SDS011;26642;55.766;37.828;2022-08-21T08:03:49;38.38;;;27.88;;
40635;SDS011;26642;55.766;37.828;2022-08-21T08:06:15;40.78;;;29.38;;
40635;SDS011;26642;55.766;37.828;2022-08-21T08:08:43;39.10;;;29.50;;
40635;SDS011;26642;55.766;37.828;2022-08-21T08:11:11;43.03;;;31.17;;
40635;SDS011;26642;55.766;37.828;2022-08-21T08:13:44;40.25;;;29.23;;
40635;SDS011;26642;55.766;37.828;2022-08-21T08:16:13;36.28;;;27.60;;
40635;SDS011;26642;55.766;37.828;2022-08-21T08:18:41;36.17;;;27.17;;
40635;SDS011;26642;55.766;37.828;2022-08-21T08:21:07;43.72;;;28.63;;
40635;SDS011;26642;55.766;37.828;2022-08-21T08:23:34;39.67;;;27.85;;
40635;SDS011;26642;55.766;37.828;2022-08-21T08:26:00;38.97;;;24.73;;
40635;SDS011;26642;55.766;37.828;2022-08-21T08:28:28;30.60;;;23.17;;
40635;SDS011;26642;55.766;37.828;2022-08-21T08:30:57;30.42;;;23.23;;
40635;SDS011;26642;55.766;37.828;2022-08-21T08:33:23;33.72;;;23.38;;
40635;SDS011;26642;55.766;37.828;2022-08-21T08:35:50;32.95;;;21.67;;
40635;SDS011;26642;55.766;37.828;2022-08-21T08:38:17;31.00;;;21.52;;
40635;SDS011;26642;55.766;37.828;2022-08-21T08:43:32;31.33;;;23.38;;
40635;SDS011;26642;55.766;37.828;2022-08-21T08:46:01;29.70;;;21.83;;
40635;SDS011;26642;55.766;37.828;2022-08-21T08:51:06;27.20;;;21.00;;
40635;SDS011;26642;55.766;37.828;2022-08-21T08:53:49;28.05;;;18.45;;
40635;SDS011;26642;55.766;37.828;2022-08-21T08:56:28;30.30;;;19.35;;
40635;SDS011;26642;55.766;37.828;2022-08-21T08:58:58;27.58;;;19.63;;
40635;SDS011;26642;55.766;37.828;2022-08-21T09:01:39;28.33;;;19.05;;
40635;SDS011;26642;55.766;37.828;2022-08-21T09:04:05;26.20;;;19.67;;
40635;SDS011;26642;55.766;37.828;2022-08-21T09:06:37;30.98;;;20.73;;
40635;SDS011;26642;55.766;37.828;2022-08-21T09:14:50;25.42;;;19.75;;
40635;SDS011;26642;55.766;37.828;2022-08-21T09:25:34;30.70;;;20.13;;
40635;SDS011;26642;55.766;37.828;2022-08-21T09:28:21;30.80;;;19.45;;
40635;SDS011;26642;55.766;37.828;2022-08-21T09:30:47;27.27;;;20.33;;
40635;SDS011;26642;55.766;37.828;2022-08-21T09:33:14;26.50;;;19.58;;
40635;SDS011;26642;55.766;37.828;2022-08-21T09:35:48;25.98;;;18.50;;
40635;SDS011;26642;55.766;37.828;2022-08-21T09:38:28;26.95;;;17.30;;
40635;SDS011;26642;55.766;37.828;2022-08-21T09:41:02;24.02;;;16.67;;
40635;SDS011;26642;55.766;37.828;2022-08-21T09:43:30;22.15;;;15.15;;
40635;SDS011;26642;55.766;37.828;2022-08-21T09:46:08;23.23;;;15.63;;
40635;SDS011;26642;55.766;37.828;2022-08-21T09:48:46;25.05;;;16.67;;
40635;SDS011;26642;55.766;37.828;2022-08-21T09:51:15;20.48;;;16.02;;
40635;SDS011;26642;55.766;37.828;2022-08-21T09:54:14;25.48;;;16.42;;
40635;SDS011;26642;55.766;37.828;2022-08-21T09:56:59;25.58;;;17.42;;
40635;SDS011;26642;55.766;37.828;2022-08-21T09:59:50;22.75;;;16.55;;
40635;SDS011;26642;55.766;37.828;2022-08-21T10:02:22;23.63;;;16.38;;
40635;SDS011;26642;55.766;37.828;2022-08-21T10:04:56;26.17;;;17.90;;
40635;SDS011;26642;55.766;37.828;2022-08-21T10:07:24;23.55;;;17.40;;
40635;SDS011;26642;55.766;37.828;2022-08-21T10:10:26;31.70;;;18.23;;
40635;SDS011;26642;55.766;37.828;2022-08-21T10:32:22;21.67;;;14.40;;
40635;SDS011;26642;55.766;37.828;2022-08-21T10:43:00;17.83;;;13.15;;
40635;SDS011;26642;55.766;37.828;2022-08-21T10:45:47;21.75;;;14.75;;
40635;SDS011;26642;55.766;37.828;2022-08-21T10:56:39;17.08;;;12.52;;
40635;SDS011;26642;55.766;37.828;2022-08-21T11:02:10;19.90;;;11.68;;
40635;SDS011;26642;55.766;37.828;2022-08-21T11:05:14;16.38;;;11.13;;
40635;SDS011;26642;55.766;37.828;2022-08-21T11:07:48;18.13;;;12.27;;
40635;SDS011;26642;55.766;37.828;2022-08-21T11:10:26;20.48;;;12.60;;
40635;SDS011;26642;55.766;37.828;2022-08-21T11:13:00;20.90;;;13.07;;
40635;SDS011;26642;55.766;37.828;2022-08-21T11:23:46;18.67;;;10.82;;
40635;SDS011;26642;55.766;37.828;2022-08-21T11:34:40;24.77;;;13.57;;
40635;SDS011;26642;55.766;37.828;2022-08-21T11:37:20;28.20;;;13.52;;
40635;SDS011;26642;55.766;37.828;2022-08-21T11:40:04;19.70;;;12.95;;
40635;SDS011;26642;55.766;37.828;2022-08-21T11:42:43;22.90;;;11.85;;
40635;SDS011;26642;55.766;37.828;2022-08-21T11:45:21;18.30;;;12.57;;
40635;SDS011;26642;55.766;37.828;2022-08-21T11:50:58;24.02;;;13.00;;
40635;SDS011;26642;55.766;37.828;2022-08-21T11:53:30;25.80;;;14.50;;
40635;SDS011;26642;55.766;37.828;2022-08-21T11:56:09;22.02;;;13.68;;
40635;SDS011;26642;55.766;37.828;2022-08-21T11:58:44;20.35;;;13.25;;
40635;SDS011;26642;55.766;37.828;2022-08-21T12:01:15;18.23;;;11.95;;
40635;SDS011;26642;55.766;37.828;2022-08-21T12:04:08;20.30;;;10.95;;
40635;SDS011;26642;55.766;37.828;2022-08-21T12:06:36;13.32;;;9.38;;
40635;SDS011;26642;55.766;37.828;2022-08-21T12:12:02;17.63;;;9.82;;
40635;SDS011;26642;55.766;37.828;2022-08-21T12:14:45;13.07;;;8.48;;
40635;SDS011;26642;55.766;37.828;2022-08-21T12:17:23;16.75;;;8.90;;
40635;SDS011;26642;55.766;37.828;2022-08-21T12:20:15;17.75;;;9.73;;
40635;SDS011;26642;55.766;37.828;2022-08-21T12:25:38;17.88;;;9.82;;
40635;SDS011;26642;55.766;37.828;2022-08-21T12:28:10;17.85;;;9.77;;
40635;SDS011;26642;55.766;37.828;2022-08-21T12:30:43;13.93;;;9.60;;
40635;SDS011;26642;55.766;37.828;2022-08-21T12:36:17;18.23;;;11.05;;
40635;SDS011;26642;55.766;37.828;2022-08-21T12:38:51;18.10;;;11.35;;
40635;SDS011;26642;55.766;37.828;2022-08-21T12:45:02;18.10;;;11.88;;
40635;SDS011;26642;55.766;37.828;2022-08-21T12:50:24;19.92;;;11.57;;
40635;SDS011;26642;55.766;37.828;2022-08-21T12:53:09;15.45;;;11.23;;
40635;SDS011;26642;55.766;37.828;2022-08-21T12:55:51;21.70;;;11.45;;
40635;SDS011;26642;55.766;37.828;2022-08-21T12:58:32;20.73;;;11.57;;
40635;SDS011;26642;55.766;37.828;2022-08-21T13:01:01;18.85;;;12.38;;
40635;SDS011;26642;55.766;37.828;2022-08-21T13:03:36;18.25;;;12.68;;
40635;SDS011;26642;55.766;37.828;2022-08-21T13:06:06;20.35;;;13.88;;
40635;SDS011;26642;55.766;37.828;2022-08-21T13:08:39;18.20;;;12.60;;
40635;SDS011;26642;55.766;37.828;2022-08-21T13:11:06;17.67;;;13.45;;
40635;SDS011;26642;55.766;37.828;2022-08-21T13:13:33;20.27;;;14.73;;
40635;SDS011;26642;55.766;37.828;2022-08-21T13:16:01;20.35;;;15.15;;
40635;SDS011;26642;55.766;37.828;2022-08-21T13:18:32;23.50;;;16.90;;
40635;SDS011;26642;55.766;37.828;2022-08-21T13:21:10;25.42;;;17.95;;
40635;SDS011;26642;55.766;37.828;2022-08-21T13:23:39;25.55;;;19.65;;
40635;SDS011;26642;55.766;37.828;2022-08-21T13:29:06;29.33;;;22.58;;
40635;SDS011;26642;55.766;37.828;2022-08-21T13:31:52;30.07;;;23.50;;
40635;SDS011;26642;55.766;37.828;2022-08-21T13:34:25;30.65;;;22.10;;
40635;SDS011;26642;55.766;37.828;2022-08-21T13:36:57;31.00;;;22.23;;
40635;SDS011;26642;55.766;37.828;2022-08-21T13:39:25;29.35;;;23.30;;
40635;SDS011;26642;55.766;37.828;2022-08-21T13:41:56;32.60;;;24.30;;
40635;SDS011;26642;55.766;37.828;2022-08-21T13:46:57;32.83;;;23.15;;
40635;SDS011;26642;55.766;37.828;2022-08-21T13:49:30;29.63;;;24.02;;
40635;SDS011;26642;55.766;37.828;2022-08-21T13:52:55;32.40;;;24.95;;
40635;SDS011;26642;55.766;37.828;2022-08-21T13:55:40;34.95;;;24.67;;
40635;SDS011;26642;55.766;37.828;2022-08-21T13:58:09;36.72;;;25.67;;
40635;SDS011;26642;55.766;37.828;2022-08-21T14:00:44;30.27;;;25.33;;
40635;SDS011;26642;55.766;37.828;2022-08-21T14:03:13;33.33;;;24.70;;
40635;SDS011;26642;55.766;37.828;2022-08-21T14:08:48;31.88;;;25.20;;
40635;SDS011;26642;55.766;37.828;2022-08-21T14:11:20;33.38;;;25.05;;
40635;SDS011;26642;55.766;37.828;2022-08-21T14:14:14;31.27;;;24.42;;
40635;SDS011;26642;55.766;37.828;2022-08-21T14:16:52;35.45;;;24.10;;
40635;SDS011;26642;55.766;37.828;2022-08-21T14:19:35;30.95;;;25.63;;
40635;SDS011;26642;55.766;37.828;2022-08-21T14:22:23;34.05;;;26.13;;
40635;SDS011;26642;55.766;37.828;2022-08-21T14:27:38;32.13;;;27.17;;
40635;SDS011;26642;55.766;37.828;2022-08-21T14:30:12;35.15;;;27.15;;
40635;SDS011;26642;55.766;37.828;2022-08-21T14:32:42;37.60;;;26.90;;
40635;SDS011;26642;55.766;37.828;2022-08-21T14:35:09;38.33;;;29.77;;
40635;SDS011;26642;55.766;37.828;2022-08-21T14:37:36;33.63;;;28.35;;
40635;SDS011;26642;55.766;37.828;2022-08-21T14:40:03;42.63;;;27.10;;
40635;SDS011;26642;55.766;37.828;2022-08-21T14:42:30;37.05;;;26.80;;
40635;SDS011;26642;55.766;37.828;2022-08-21T14:44:57;32.58;;;26.80;;
40635;SDS011;26642;55.766;37.828;2022-08-21T14:47:27;32.70;;;25.67;;
40635;SDS011;26642;55.766;37.828;2022-08-21T14:49:54;29.10;;;25.13;;
40635;SDS011;26642;55.766;37.828;2022-08-21T14:52:20;29.50;;;23.70;;
40635;SDS011;26642;55.766;37.828;2022-08-21T14:54:48;31.52;;;23.98;;
40635;SDS011;26642;55.766;37.828;2022-08-21T14:57:14;30.13;;;23.05;;
40635;SDS011;26642;55.766;37.828;2022-08-21T14:59:40;30.70;;;23.42;;
40635;SDS011;26642;55.766;37.828;2022-08-21T15:02:07;33.17;;;24.70;;
40635;SDS011;26642;55.766;37.828;2022-08-21T15:04:34;34.67;;;25.70;;
40635;SDS011;26642;55.766;37.828;2022-08-21T15:07:00;31.33;;;24.75;;
40635;SDS011;26642;55.766;37.828;2022-08-21T15:09:26;27.80;;;22.63;;
40635;SDS011;26642;55.766;37.828;2022-08-21T15:11:53;37.95;;;24.27;;
40635;SDS011;26642;55.766;37.828;2022-08-21T15:14:22;31.48;;;21.83;;
40635;SDS011;26642;55.766;37.828;2022-08-21T15:16:51;26.48;;;19.33;;
40635;SDS011;26642;55.766;37.828;2022-08-21T15:19:18;26.63;;;19.88;;
40635;SDS011;26642;55.766;37.828;2022-08-21T15:21:51;25.65;;;20.73;;
40635;SDS011;26642;55.766;37.828;2022-08-21T15:24:25;28.60;;;22.45;;
40635;SDS011;26642;55.766;37.828;2022-08-21T15:26:52;32.30;;;25.90;;
40635;SDS011;26642;55.766;37.828;2022-08-21T15:29:20;31.98;;;26.35;;
40635;SDS011;26642;55.766;37.828;2022-08-21T15:34:27;37.67;;;29.30;;
40635;SDS011;26642;55.766;37.828;2022-08-21T15:36:55;36.97;;;29.88;;
40635;SDS011;26642;55.766;37.828;2022-08-21T15:39:23;36.08;;;30.77;;
40635;SDS011;26642;55.766;37.828;2022-08-21T15:41:50;38.25;;;32.53;;
40635;SDS011;26642;55.766;37.828;2022-08-21T15:44:16;41.70;;;33.25;;
40635;SDS011;26642;55.766;37.828;2022-08-21T15:46:43;39.47;;;33.55;;
40635;SDS011;26642;55.766;37.828;2022-08-21T15:49:10;42.42;;;35.08;;
40635;SDS011;26642;55.766;37.828;2022-08-21T15:51:37;48.25;;;37.00;;
40635;SDS011;26642;55.766;37.828;2022-08-21T15:54:03;45.88;;;35.72;;
40635;SDS011;26642;55.766;37.828;2022-08-21T15:56:37;43.88;;;36.60;;
40635;SDS011;26642;55.766;37.828;2022-08-21T15:59:05;46.90;;;37.58;;
40635;SDS011;26642;55.766;37.828;2022-08-21T16:01:34;48.72;;;37.97;;
40635;SDS011;26642;55.766;37.828;2022-08-21T16:06:53;48.63;;;39.00;;
40635;SDS011;26642;55.766;37.828;2022-08-21T16:09:19;48.95;;;40.17;;
40635;SDS011;26642;55.766;37.828;2022-08-21T16:11:46;48.00;;;40.80;;
40635;SDS011;26642;55.766;37.828;2022-08-21T16:14:13;43.97;;;39.15;;